sensor_id;sensor_type;location;lat;lon;timestamp;P1;durP1;ratioP1;P2;durP2;ratioP2
21621;SDS011;10973;46.706;12.340;2022-08-19T00:02:03;2.10;;;1.87;;
21621;SDS011;10973;46.706;12.340;2022-08-19T00:04:31;1.90;;;1.57;;
21621;SDS011;10973;46.706;12.340;2022-08-19T00:07:02;1.67;;;1.57;;
21621;SDS011;10973;46.706;12.340;2022-08-19T00:09:32;2.53;;;1.83;;
21621;SDS011;10973;46.706;12.340;2022-08-19T00:12:00;3.20;;;1.67;;
21621;SDS011;10973;46.706;12.340;2022-08-19T00:14:28;3.00;;;1.80;;
21621;SDS011;10973;46.706;12.340;2022-08-19T00:16:56;2.17;;;1.67;;
21621;SDS011;10973;46.706;12.340;2022-08-19T00:19:23;6.03;;;1.87;;
21621;SDS011;10973;46.706;12.340;2022-08-19T00:21:52;2.10;;;1.80;;
21621;SDS011;10973;46.706;12.340;2022-08-19T00:24:19;1.60;;;1.50;;
21621;SDS011;10973;46.706;12.340;2022-08-19T00:26:47;2.90;;;1.80;;
21621;SDS011;10973;46.706;12.340;2022-08-19T00:29:15;1.80;;;1.40;;
21621;SDS011;10973;46.706;12.340;2022-08-19T00:31:45;1.70;;;1.60;;
21621;SDS011;10973;46.706;12.340;2022-08-19T00:34:16;1.83;;;1.73;;
21621;SDS011;10973;46.706;12.340;2022-08-19T00:36:43;1.87;;;1.50;;
21621;SDS011;10973;46.706;12.340;2022-08-19T00:39:14;2.37;;;1.40;;
21621;SDS011;10973;46.706;12.340;2022-08-19T00:41:43;2.73;;;1.60;;
21621;SDS011;10973;46.706;12.340;2022-08-19T00:44:14;1.60;;;1.50;;
21621;SDS011;10973;46.706;12.340;2022-08-19T00:46:53;3.70;;;1.77;;
21621;SDS011;10973;46.706;12.340;2022-08-19T00:49:29;2.33;;;1.70;;
21621;SDS011;10973;46.706;12.340;2022-08-19T00:52:04;1.90;;;1.57;;
21621;SDS011;10973;46.706;12.340;2022-08-19T00:54:43;2.47;;;1.83;;
21621;SDS011;10973;46.706;12.340;2022-08-19T00:57:18;1.93;;;1.50;;
21621;SDS011;10973;46.706;12.340;2022-08-19T00:59:54;4.23;;;1.60;;
21621;SDS011;10973;46.706;12.340;2022-08-19T01:02:28;2.33;;;1.90;;
21621;SDS011;10973;46.706;12.340;2022-08-19T01:04:59;2.60;;;1.60;;
21621;SDS011;10973;46.706;12.340;2022-08-19T01:07:34;5.07;;;1.97;;
21621;SDS011;10973;46.706;12.340;2022-08-19T01:10:06;1.70;;;1.60;;
21621;SDS011;10973;46.706;12.340;2022-08-19T01:12:37;1.93;;;1.80;;
21621;SDS011;10973;46.706;12.340;2022-08-19T01:15:07;1.93;;;1.50;;
21621;SDS011;10973;46.706;12.340;2022-08-19T01:17:39;2.30;;;1.63;;
21621;SDS011;10973;46.706;12.340;2022-08-19T01:20:16;2.37;;;1.50;;
21621;SDS011;10973;46.706;12.340;2022-08-19T01:22:51;3.23;;;1.70;;
21621;SDS011;10973;46.706;12.340;2022-08-19T01:25:26;7.07;;;1.73;;
21621;SDS011;10973;46.706;12.340;2022-08-19T01:27:58;3.33;;;2.70;;
21621;SDS011;10973;46.706;12.340;2022-08-19T01:30:36;4.23;;;2.60;;
21621;SDS011;10973;46.706;12.340;2022-08-19T01:33:03;3.03;;;2.73;;
21621;SDS011;10973;46.706;12.340;2022-08-19T01:35:31;5.80;;;3.07;;
21621;SDS011;10973;46.706;12.340;2022-08-19T01:38:00;5.47;;;3.10;;
21621;SDS011;10973;46.706;12.340;2022-08-19T01:40:31;4.43;;;2.80;;
21621;SDS011;10973;46.706;12.340;2022-08-19T01:43:01;2.93;;;2.70;;
21621;SDS011;10973;46.706;12.340;2022-08-19T01:45:30;2.67;;;2.40;;
21621;SDS011;10973;46.706;12.340;2022-08-19T01:48:00;2.77;;;2.30;;
21621;SDS011;10973;46.706;12.340;2022-08-19T01:50:31;7.90;;;4.90;;
21621;SDS011;10973;46.706;12.340;2022-08-19T01:53:01;7.87;;;4.20;;
21621;SDS011;10973;46.706;12.340;2022-08-19T01:55:34;3.93;;;3.43;;
21621;SDS011;10973;46.706;12.340;2022-08-19T01:58:08;6.93;;;3.27;;
21621;SDS011;10973;46.706;12.340;2022-08-19T02:00:45;5.97;;;3.17;;
21621;SDS011;10973;46.706;12.340;2022-08-19T02:03:12;4.23;;;2.97;;
21621;SDS011;10973;46.706;12.340;2022-08-19T02:05:40;3.03;;;2.60;;
21621;SDS011;10973;46.706;12.340;2022-08-19T02:08:08;4.20;;;3.00;;
21621;SDS011;10973;46.706;12.340;2022-08-19T02:10:43;5.43;;;3.67;;
21621;SDS011;10973;46.706;12.340;2022-08-19T02:13:11;4.67;;;3.97;;
21621;SDS011;10973;46.706;12.340;2022-08-19T02:15:39;5.80;;;3.73;;
21621;SDS011;10973;46.706;12.340;2022-08-19T02:18:06;5.33;;;3.57;;
21621;SDS011;10973;46.706;12.340;2022-08-19T02:20:34;4.40;;;3.23;;
21621;SDS011;10973;46.706;12.340;2022-08-19T02:23:03;5.10;;;3.50;;
21621;SDS011;10973;46.706;12.340;2022-08-19T02:25:39;3.30;;;3.00;;
21621;SDS011;10973;46.706;12.340;2022-08-19T02:28:08;3.27;;;2.97;;
21621;SDS011;10973;46.706;12.340;2022-08-19T02:30:35;2.93;;;2.57;;
21621;SDS011;10973;46.706;12.340;2022-08-19T02:33:02;5.10;;;2.93;;
21621;SDS011;10973;46.706;12.340;2022-08-19T02:35:31;3.53;;;3.00;;
21621;SDS011;10973;46.706;12.340;2022-08-19T02:37:58;5.53;;;3.13;;
21621;SDS011;10973;46.706;12.340;2022-08-19T02:40:26;4.73;;;2.60;;
21621;SDS011;10973;46.706;12.340;2022-08-19T02:42:55;3.17;;;2.23;;
21621;SDS011;10973;46.706;12.340;2022-08-19T02:45:23;5.60;;;2.00;;
21621;SDS011;10973;46.706;12.340;2022-08-19T02:47:50;2.73;;;2.27;;
21621;SDS011;10973;46.706;12.340;2022-08-19T02:50:17;2.20;;;1.50;;
21621;SDS011;10973;46.706;12.340;2022-08-19T02:52:44;2.77;;;1.77;;
21621;SDS011;10973;46.706;12.340;2022-08-19T02:55:12;2.27;;;2.07;;
21621;SDS011;10973;46.706;12.340;2022-08-19T02:57:39;3.67;;;1.87;;
21621;SDS011;10973;46.706;12.340;2022-08-19T03:00:06;2.70;;;1.70;;
21621;SDS011;10973;46.706;12.340;2022-08-19T03:02:35;3.27;;;1.83;;
21621;SDS011;10973;46.706;12.340;2022-08-19T03:05:03;4.13;;;1.80;;
21621;SDS011;10973;46.706;12.340;2022-08-19T03:07:31;2.23;;;1.70;;
21621;SDS011;10973;46.706;12.340;2022-08-19T03:09:59;2.80;;;1.83;;
21621;SDS011;10973;46.706;12.340;2022-08-19T03:12:26;3.33;;;2.10;;
21621;SDS011;10973;46.706;12.340;2022-08-19T03:14:54;4.93;;;2.10;;
21621;SDS011;10973;46.706;12.340;2022-08-19T03:17:21;3.73;;;1.67;;
21621;SDS011;10973;46.706;12.340;2022-08-19T03:19:48;2.00;;;1.60;;
21621;SDS011;10973;46.706;12.340;2022-08-19T03:22:16;1.90;;;1.67;;
21621;SDS011;10973;46.706;12.340;2022-08-19T03:24:43;1.67;;;1.57;;
21621;SDS011;10973;46.706;12.340;2022-08-19T03:27:10;4.33;;;1.80;;
21621;SDS011;10973;46.706;12.340;2022-08-19T03:29:37;1.57;;;1.47;;
21621;SDS011;10973;46.706;12.340;2022-08-19T03:32:08;4.37;;;1.87;;
21621;SDS011;10973;46.706;12.340;2022-08-19T03:34:57;5.00;;;1.70;;
21621;SDS011;10973;46.706;12.340;2022-08-19T03:37:24;1.80;;;1.70;;
21621;SDS011;10973;46.706;12.340;2022-08-19T03:39:51;3.87;;;1.60;;
21621;SDS011;10973;46.706;12.340;2022-08-19T03:42:18;1.93;;;1.83;;
21621;SDS011;10973;46.706;12.340;2022-08-19T03:45:06;3.80;;;2.07;;
21621;SDS011;10973;46.706;12.340;2022-08-19T03:47:33;3.53;;;1.60;;
21621;SDS011;10973;46.706;12.340;2022-08-19T03:50:01;3.27;;;1.50;;
21621;SDS011;10973;46.706;12.340;2022-08-19T03:52:29;2.40;;;1.60;;
21621;SDS011;10973;46.706;12.340;2022-08-19T03:54:56;1.80;;;1.70;;
21621;SDS011;10973;46.706;12.340;2022-08-19T03:57:23;1.70;;;1.60;;
21621;SDS011;10973;46.706;12.340;2022-08-19T03:59:57;2.67;;;2.20;;
21621;SDS011;10973;46.706;12.340;2022-08-19T04:02:39;2.77;;;2.40;;
21621;SDS011;10973;46.706;12.340;2022-08-19T04:05:08;4.27;;;2.90;;
21621;SDS011;10973;46.706;12.340;2022-08-19T04:07:35;4.30;;;2.80;;
21621;SDS011;10973;46.706;12.340;2022-08-19T04:10:03;3.67;;;2.20;;
21621;SDS011;10973;46.706;12.340;2022-08-19T04:12:31;6.07;;;2.23;;
21621;SDS011;10973;46.706;12.340;2022-08-19T04:14:58;4.30;;;2.00;;
21621;SDS011;10973;46.706;12.340;2022-08-19T04:17:26;4.77;;;2.60;;
21621;SDS011;10973;46.706;12.340;2022-08-19T04:19:53;6.23;;;3.33;;
21621;SDS011;10973;46.706;12.340;2022-08-19T04:22:20;2.20;;;2.07;;
21621;SDS011;10973;46.706;12.340;2022-08-19T04:24:47;3.30;;;2.60;;
21621;SDS011;10973;46.706;12.340;2022-08-19T04:27:14;2.40;;;2.20;;
21621;SDS011;10973;46.706;12.340;2022-08-19T04:29:42;3.67;;;2.30;;
21621;SDS011;10973;46.706;12.340;2022-08-19T04:32:10;2.67;;;2.47;;
21621;SDS011;10973;46.706;12.340;2022-08-19T04:34:37;2.73;;;2.03;;
21621;SDS011;10973;46.706;12.340;2022-08-19T04:37:25;1.97;;;1.73;;
21621;SDS011;10973;46.706;12.340;2022-08-19T04:40:00;4.17;;;2.10;;
21621;SDS011;10973;46.706;12.340;2022-08-19T04:42:31;1.90;;;1.80;;
21621;SDS011;10973;46.706;12.340;2022-08-19T04:44:58;2.43;;;1.70;;
21621;SDS011;10973;46.706;12.340;2022-08-19T04:47:26;3.93;;;1.83;;
21621;SDS011;10973;46.706;12.340;2022-08-19T04:50:14;3.10;;;2.00;;
21621;SDS011;10973;46.706;12.340;2022-08-19T04:52:41;3.47;;;1.97;;
21621;SDS011;10973;46.706;12.340;2022-08-19T04:55:09;1.93;;;1.83;;
21621;SDS011;10973;46.706;12.340;2022-08-19T04:57:37;4.73;;;2.07;;
21621;SDS011;10973;46.706;12.340;2022-08-19T05:00:05;3.40;;;2.47;;
21621;SDS011;10973;46.706;12.340;2022-08-19T05:02:35;2.27;;;2.03;;
21621;SDS011;10973;46.706;12.340;2022-08-19T05:05:04;1.70;;;1.60;;
21621;SDS011;10973;46.706;12.340;2022-08-19T05:07:32;2.93;;;1.90;;
21621;SDS011;10973;46.706;12.340;2022-08-19T05:09:59;2.60;;;2.10;;
21621;SDS011;10973;46.706;12.340;2022-08-19T05:12:27;2.80;;;1.73;;
21621;SDS011;10973;46.706;12.340;2022-08-19T05:14:55;3.10;;;1.77;;
21621;SDS011;10973;46.706;12.340;2022-08-19T05:17:25;1.73;;;1.63;;
21621;SDS011;10973;46.706;12.340;2022-08-19T05:19:58;1.30;;;1.20;;
21621;SDS011;10973;46.706;12.340;2022-08-19T05:22:26;2.37;;;2.00;;
21621;SDS011;10973;46.706;12.340;2022-08-19T05:24:53;3.70;;;2.00;;
21621;SDS011;10973;46.706;12.340;2022-08-19T05:27:37;3.00;;;1.70;;
21621;SDS011;10973;46.706;12.340;2022-08-19T05:30:05;2.57;;;2.00;;
21621;SDS011;10973;46.706;12.340;2022-08-19T05:32:33;2.20;;;1.60;;
21621;SDS011;10973;46.706;12.340;2022-08-19T05:35:01;4.60;;;1.80;;
21621;SDS011;10973;46.706;12.340;2022-08-19T05:37:29;3.17;;;2.00;;
21621;SDS011;10973;46.706;12.340;2022-08-19T05:39:57;3.40;;;2.00;;
21621;SDS011;10973;46.706;12.340;2022-08-19T05:42:24;2.20;;;1.70;;
21621;SDS011;10973;46.706;12.340;2022-08-19T05:44:51;3.23;;;1.70;;
21621;SDS011;10973;46.706;12.340;2022-08-19T05:47:18;3.10;;;1.57;;
21621;SDS011;10973;46.706;12.340;2022-08-19T05:49:49;2.80;;;1.50;;
21621;SDS011;10973;46.706;12.340;2022-08-19T05:52:17;3.53;;;2.00;;
21621;SDS011;10973;46.706;12.340;2022-08-19T05:54:52;1.80;;;1.70;;
21621;SDS011;10973;46.706;12.340;2022-08-19T05:57:20;4.67;;;2.03;;
21621;SDS011;10973;46.706;12.340;2022-08-19T05:59:48;2.00;;;1.80;;
21621;SDS011;10973;46.706;12.340;2022-08-19T06:02:26;1.73;;;1.63;;
21621;SDS011;10973;46.706;12.340;2022-08-19T06:04:55;2.80;;;1.67;;
21621;SDS011;10973;46.706;12.340;2022-08-19T06:07:22;5.10;;;3.77;;
21621;SDS011;10973;46.706;12.340;2022-08-19T06:09:50;5.73;;;5.13;;
21621;SDS011;10973;46.706;12.340;2022-08-19T06:12:29;4.00;;;3.60;;
21621;SDS011;10973;46.706;12.340;2022-08-19T06:14:59;4.00;;;2.03;;
21621;SDS011;10973;46.706;12.340;2022-08-19T06:17:30;4.13;;;1.80;;
21621;SDS011;10973;46.706;12.340;2022-08-19T06:19:58;3.00;;;1.90;;
21621;SDS011;10973;46.706;12.340;2022-08-19T06:22:26;3.10;;;2.80;;
21621;SDS011;10973;46.706;12.340;2022-08-19T06:24:55;9.53;;;7.23;;
21621;SDS011;10973;46.706;12.340;2022-08-19T06:27:22;7.70;;;6.07;;
21621;SDS011;10973;46.706;12.340;2022-08-19T06:29:50;6.57;;;5.47;;
21621;SDS011;10973;46.706;12.340;2022-08-19T06:32:17;3.37;;;3.00;;
21621;SDS011;10973;46.706;12.340;2022-08-19T06:34:44;5.07;;;2.50;;
21621;SDS011;10973;46.706;12.340;2022-08-19T06:37:12;1.80;;;1.70;;
21621;SDS011;10973;46.706;12.340;2022-08-19T06:39:42;2.40;;;1.50;;
21621;SDS011;10973;46.706;12.340;2022-08-19T06:42:11;1.47;;;1.37;;
21621;SDS011;10973;46.706;12.340;2022-08-19T06:44:40;2.93;;;2.17;;
21621;SDS011;10973;46.706;12.340;2022-08-19T06:47:18;5.53;;;1.50;;
21621;SDS011;10973;46.706;12.340;2022-08-19T06:49:53;3.73;;;2.10;;
21621;SDS011;10973;46.706;12.340;2022-08-19T06:52:26;3.90;;;2.60;;
21621;SDS011;10973;46.706;12.340;2022-08-19T06:54:54;5.40;;;3.00;;
21621;SDS011;10973;46.706;12.340;2022-08-19T06:57:25;3.37;;;2.90;;
21621;SDS011;10973;46.706;12.340;2022-08-19T06:59:53;3.63;;;2.70;;
21621;SDS011;10973;46.706;12.340;2022-08-19T07:02:20;2.40;;;2.20;;
21621;SDS011;10973;46.706;12.340;2022-08-19T07:04:47;2.20;;;2.00;;
21621;SDS011;10973;46.706;12.340;2022-08-19T07:07:18;2.27;;;1.97;;
21621;SDS011;10973;46.706;12.340;2022-08-19T07:09:51;3.77;;;1.83;;
21621;SDS011;10973;46.706;12.340;2022-08-19T07:12:27;2.50;;;2.07;;
21621;SDS011;10973;46.706;12.340;2022-08-19T07:14:57;3.43;;;1.70;;
21621;SDS011;10973;46.706;12.340;2022-08-19T07:17:25;4.83;;;1.73;;
21621;SDS011;10973;46.706;12.340;2022-08-19T07:19:54;3.70;;;2.10;;
21621;SDS011;10973;46.706;12.340;2022-08-19T07:22:21;3.80;;;1.90;;
21621;SDS011;10973;46.706;12.340;2022-08-19T07:24:50;1.80;;;1.70;;
21621;SDS011;10973;46.706;12.340;2022-08-19T07:27:18;3.80;;;1.90;;
21621;SDS011;10973;46.706;12.340;2022-08-19T07:29:51;3.37;;;1.80;;
21621;SDS011;10973;46.706;12.340;2022-08-19T07:32:25;3.60;;;1.90;;
21621;SDS011;10973;46.706;12.340;2022-08-19T07:34:52;1.73;;;1.40;;
21621;SDS011;10973;46.706;12.340;2022-08-19T07:37:22;2.53;;;1.50;;
21621;SDS011;10973;46.706;12.340;2022-08-19T07:39:57;5.23;;;1.60;;
21621;SDS011;10973;46.706;12.340;2022-08-19T07:42:24;3.37;;;1.60;;
21621;SDS011;10973;46.706;12.340;2022-08-19T07:44:52;2.27;;;1.50;;
21621;SDS011;10973;46.706;12.340;2022-08-19T07:47:19;1.77;;;1.53;;
21621;SDS011;10973;46.706;12.340;2022-08-19T07:50:07;1.63;;;1.50;;
21621;SDS011;10973;46.706;12.340;2022-08-19T07:52:37;1.87;;;1.57;;
21621;SDS011;10973;46.706;12.340;2022-08-19T07:55:06;2.03;;;1.90;;
21621;SDS011;10973;46.706;12.340;2022-08-19T07:57:56;1.73;;;1.40;;
21621;SDS011;10973;46.706;12.340;2022-08-19T08:00:23;1.40;;;1.30;;
21621;SDS011;10973;46.706;12.340;2022-08-19T08:02:52;1.50;;;1.40;;
21621;SDS011;10973;46.706;12.340;2022-08-19T08:05:22;3.20;;;1.73;;
21621;SDS011;10973;46.706;12.340;2022-08-19T08:07:50;2.40;;;1.30;;
21621;SDS011;10973;46.706;12.340;2022-08-19T08:10:17;1.70;;;1.60;;
21621;SDS011;10973;46.706;12.340;2022-08-19T08:12:46;2.77;;;1.53;;
21621;SDS011;10973;46.706;12.340;2022-08-19T08:15:34;1.93;;;1.70;;
21621;SDS011;10973;46.706;12.340;2022-08-19T08:18:08;1.57;;;1.30;;
21621;SDS011;10973;46.706;12.340;2022-08-19T08:20:37;1.50;;;1.40;;
21621;SDS011;10973;46.706;12.340;2022-08-19T08:23:04;1.60;;;1.50;;
21621;SDS011;10973;46.706;12.340;2022-08-19T08:25:32;2.13;;;1.40;;
21621;SDS011;10973;46.706;12.340;2022-08-19T08:28:01;1.70;;;1.20;;
21621;SDS011;10973;46.706;12.340;2022-08-19T08:30:30;3.23;;;1.50;;
21621;SDS011;10973;46.706;12.340;2022-08-19T08:32:58;1.53;;;1.43;;
21621;SDS011;10973;46.706;12.340;2022-08-19T08:35:29;2.10;;;1.40;;
21621;SDS011;10973;46.706;12.340;2022-08-19T08:37:56;2.07;;;1.40;;
21621;SDS011;10973;46.706;12.340;2022-08-19T08:46:03;4.67;;;1.70;;
21621;SDS011;10973;46.706;12.340;2022-08-19T08:51:48;1.50;;;1.40;;
21621;SDS011;10973;46.706;12.340;2022-08-19T08:54:29;3.33;;;1.67;;
21621;SDS011;10973;46.706;12.340;2022-08-19T08:57:19;1.37;;;1.27;;
21621;SDS011;10973;46.706;12.340;2022-08-19T09:00:05;1.83;;;1.38;;
21621;SDS011;10973;46.706;12.340;2022-08-19T09:02:41;2.53;;;1.55;;
21621;SDS011;10973;46.706;12.340;2022-08-19T09:05:16;1.87;;;1.53;;
21621;SDS011;10973;46.706;12.340;2022-08-19T09:16:05;1.97;;;1.67;;
21621;SDS011;10973;46.706;12.340;2022-08-19T09:21:23;2.97;;;1.40;;
21621;SDS011;10973;46.706;12.340;2022-08-19T09:23:58;2.25;;;1.48;;
21621;SDS011;10973;46.706;12.340;2022-08-19T09:26:30;1.50;;;1.40;;
21621;SDS011;10973;46.706;12.340;2022-08-19T09:29:13;2.40;;;1.50;;
21621;SDS011;10973;46.706;12.340;2022-08-19T09:31:43;2.57;;;1.30;;
21621;SDS011;10973;46.706;12.340;2022-08-19T09:34:10;2.13;;;1.50;;
21621;SDS011;10973;46.706;12.340;2022-08-19T09:36:46;1.57;;;1.40;;
21621;SDS011;10973;46.706;12.340;2022-08-19T09:39:15;1.60;;;1.50;;
21621;SDS011;10973;46.706;12.340;2022-08-19T09:41:42;4.27;;;1.73;;
21621;SDS011;10973;46.706;12.340;2022-08-19T09:44:14;1.30;;;1.27;;
21621;SDS011;10973;46.706;12.340;2022-08-19T09:46:43;2.40;;;1.40;;
21621;SDS011;10973;46.706;12.340;2022-08-19T09:49:10;2.25;;;1.40;;
21621;SDS011;10973;46.706;12.340;2022-08-19T09:51:38;1.63;;;1.50;;
21621;SDS011;10973;46.706;12.340;2022-08-19T09:54:06;1.43;;;1.30;;
21621;SDS011;10973;46.706;12.340;2022-08-19T09:56:36;3.93;;;1.40;;
21621;SDS011;10973;46.706;12.340;2022-08-19T09:59:07;1.42;;;1.30;;
21621;SDS011;10973;46.706;12.340;2022-08-19T10:01:34;1.42;;;1.33;;
21621;SDS011;10973;46.706;12.340;2022-08-19T10:04:02;1.65;;;1.55;;
21621;SDS011;10973;46.706;12.340;2022-08-19T10:06:45;2.80;;;1.80;;
21621;SDS011;10973;46.706;12.340;2022-08-19T10:09:13;2.40;;;1.40;;
21621;SDS011;10973;46.706;12.340;2022-08-19T10:11:59;1.45;;;1.27;;
21621;SDS011;10973;46.706;12.340;2022-08-19T10:14:28;3.40;;;1.55;;
21621;SDS011;10973;46.706;12.340;2022-08-19T10:16:56;1.30;;;1.30;;
21621;SDS011;10973;46.706;12.340;2022-08-19T10:19:24;1.67;;;1.33;;
21621;SDS011;10973;46.706;12.340;2022-08-19T10:21:53;1.52;;;1.38;;
21621;SDS011;10973;46.706;12.340;2022-08-19T10:24:26;2.38;;;1.55;;
21621;SDS011;10973;46.706;12.340;2022-08-19T10:26:53;1.35;;;1.25;;
21621;SDS011;10973;46.706;12.340;2022-08-19T10:29:25;1.20;;;1.20;;
21621;SDS011;10973;46.706;12.340;2022-08-19T10:31:59;3.10;;;1.42;;
21621;SDS011;10973;46.706;12.340;2022-08-19T10:34:29;1.92;;;1.83;;
21621;SDS011;10973;46.706;12.340;2022-08-19T10:36:58;2.33;;;1.50;;
21621;SDS011;10973;46.706;12.340;2022-08-19T10:39:28;2.20;;;1.50;;
21621;SDS011;10973;46.706;12.340;2022-08-19T10:42:09;1.58;;;1.48;;
21621;SDS011;10973;46.706;12.340;2022-08-19T10:44:37;1.60;;;1.50;;
21621;SDS011;10973;46.706;12.340;2022-08-19T10:47:04;2.33;;;1.40;;
21621;SDS011;10973;46.706;12.340;2022-08-19T10:49:50;3.05;;;1.65;;
21621;SDS011;10973;46.706;12.340;2022-08-19T10:52:20;4.55;;;1.52;;
21621;SDS011;10973;46.706;12.340;2022-08-19T10:54:58;2.70;;;1.35;;
21621;SDS011;10973;46.706;12.340;2022-08-19T10:57:30;2.55;;;1.45;;
21621;SDS011;10973;46.706;12.340;2022-08-19T11:00:19;3.13;;;1.50;;
21621;SDS011;10973;46.706;12.340;2022-08-19T11:02:49;2.75;;;1.55;;
21621;SDS011;10973;46.706;12.340;2022-08-19T11:05:17;2.08;;;1.48;;
21621;SDS011;10973;46.706;12.340;2022-08-19T11:07:45;1.77;;;1.67;;
21621;SDS011;10973;46.706;12.340;2022-08-19T11:10:13;1.83;;;1.73;;
21621;SDS011;10973;46.706;12.340;2022-08-19T11:12:46;1.90;;;1.55;;
21621;SDS011;10973;46.706;12.340;2022-08-19T11:15:14;3.83;;;1.50;;
21621;SDS011;10973;46.706;12.340;2022-08-19T11:17:41;1.83;;;1.57;;
21621;SDS011;10973;46.706;12.340;2022-08-19T11:20:12;3.10;;;1.50;;
21621;SDS011;10973;46.706;12.340;2022-08-19T11:22:41;3.58;;;1.80;;
21621;SDS011;10973;46.706;12.340;2022-08-19T11:25:09;1.58;;;1.48;;
21621;SDS011;10973;46.706;12.340;2022-08-19T11:27:40;2.30;;;1.63;;
21621;SDS011;10973;46.706;12.340;2022-08-19T11:30:09;1.70;;;1.60;;
21621;SDS011;10973;46.706;12.340;2022-08-19T11:32:40;1.90;;;1.75;;
21621;SDS011;10973;46.706;12.340;2022-08-19T11:35:14;2.67;;;1.63;;
21621;SDS011;10973;46.706;12.340;2022-08-19T11:37:42;2.00;;;1.65;;
21621;SDS011;10973;46.706;12.340;2022-08-19T11:40:09;1.60;;;1.50;;
21621;SDS011;10973;46.706;12.340;2022-08-19T11:42:38;2.78;;;1.90;;
21621;SDS011;10973;46.706;12.340;2022-08-19T11:45:05;5.32;;;1.60;;
21621;SDS011;10973;46.706;12.340;2022-08-19T11:47:33;1.70;;;1.55;;
21621;SDS011;10973;46.706;12.340;2022-08-19T11:50:00;1.75;;;1.20;;
21621;SDS011;10973;46.706;12.340;2022-08-19T11:52:28;3.80;;;1.42;;
21621;SDS011;10973;46.706;12.340;2022-08-19T11:54:55;2.13;;;1.60;;
21621;SDS011;10973;46.706;12.340;2022-08-19T11:57:22;2.88;;;1.30;;
21621;SDS011;10973;46.706;12.340;2022-08-19T11:59:52;1.90;;;1.70;;
21621;SDS011;10973;46.706;12.340;2022-08-19T12:02:20;1.65;;;1.55;;
21621;SDS011;10973;46.706;12.340;2022-08-19T12:04:47;1.50;;;1.40;;
21621;SDS011;10973;46.706;12.340;2022-08-19T12:07:14;2.35;;;1.42;;
21621;SDS011;10973;46.706;12.340;2022-08-19T12:09:42;2.35;;;1.95;;
21621;SDS011;10973;46.706;12.340;2022-08-19T12:12:11;1.63;;;1.52;;
21621;SDS011;10973;46.706;12.340;2022-08-19T12:14:38;1.30;;;1.30;;
21621;SDS011;10973;46.706;12.340;2022-08-19T12:17:05;1.80;;;1.70;;
21621;SDS011;10973;46.706;12.340;2022-08-19T12:19:33;4.30;;;1.42;;
21621;SDS011;10973;46.706;12.340;2022-08-19T12:22:02;1.33;;;1.30;;
21621;SDS011;10973;46.706;12.340;2022-08-19T12:24:30;1.90;;;1.45;;
21621;SDS011;10973;46.706;12.340;2022-08-19T12:26:58;1.95;;;1.85;;
21621;SDS011;10973;46.706;12.340;2022-08-19T12:29:28;3.70;;;1.50;;
21621;SDS011;10973;46.706;12.340;2022-08-19T12:31:57;3.75;;;1.90;;
21621;SDS011;10973;46.706;12.340;2022-08-19T12:34:25;7.07;;;2.33;;
21621;SDS011;10973;46.706;12.340;2022-08-19T12:36:54;4.72;;;2.45;;
21621;SDS011;10973;46.706;12.340;2022-08-19T12:39:25;4.80;;;2.63;;
21621;SDS011;10973;46.706;12.340;2022-08-19T12:41:52;4.82;;;1.98;;
21621;SDS011;10973;46.706;12.340;2022-08-19T12:44:21;4.18;;;2.00;;
21621;SDS011;10973;46.706;12.340;2022-08-19T12:46:55;2.20;;;2.00;;
21621;SDS011;10973;46.706;12.340;2022-08-19T12:49:23;2.67;;;1.73;;
21621;SDS011;10973;46.706;12.340;2022-08-19T12:52:10;2.03;;;1.67;;
21621;SDS011;10973;46.706;12.340;2022-08-19T12:54:39;2.03;;;1.80;;
21621;SDS011;10973;46.706;12.340;2022-08-19T12:57:07;1.60;;;1.50;;
21621;SDS011;10973;46.706;12.340;2022-08-19T12:59:36;2.03;;;1.80;;
21621;SDS011;10973;46.706;12.340;2022-08-19T13:02:05;2.13;;;1.75;;
21621;SDS011;10973;46.706;12.340;2022-08-19T13:04:34;2.75;;;1.60;;
21621;SDS011;10973;46.706;12.340;2022-08-19T13:07:02;3.13;;;1.75;;
21621;SDS011;10973;46.706;12.340;2022-08-19T13:09:29;2.03;;;1.90;;
21621;SDS011;10973;46.706;12.340;2022-08-19T13:11:57;4.05;;;1.92;;
21621;SDS011;10973;46.706;12.340;2022-08-19T13:14:24;3.50;;;2.00;;
21621;SDS011;10973;46.706;12.340;2022-08-19T13:16:52;2.00;;;1.83;;
21621;SDS011;10973;46.706;12.340;2022-08-19T13:19:19;1.83;;;1.73;;
21621;SDS011;10973;46.706;12.340;2022-08-19T13:21:49;2.42;;;1.50;;
21621;SDS011;10973;46.706;12.340;2022-08-19T13:24:25;5.53;;;1.70;;
21621;SDS011;10973;46.706;12.340;2022-08-19T13:26:59;1.90;;;1.70;;
21621;SDS011;10973;46.706;12.340;2022-08-19T13:29:27;2.00;;;1.70;;
21621;SDS011;10973;46.706;12.340;2022-08-19T13:31:54;1.50;;;1.40;;
21621;SDS011;10973;46.706;12.340;2022-08-19T13:34:30;2.60;;;1.30;;
21621;SDS011;10973;46.706;12.340;2022-08-19T13:37:00;2.73;;;1.53;;
21621;SDS011;10973;46.706;12.340;2022-08-19T13:39:30;1.83;;;1.73;;
21621;SDS011;10973;46.706;12.340;2022-08-19T13:41:59;2.20;;;1.77;;
21621;SDS011;10973;46.706;12.340;2022-08-19T13:44:27;2.40;;;1.60;;
21621;SDS011;10973;46.706;12.340;2022-08-19T13:46:55;1.90;;;1.60;;
21621;SDS011;10973;46.706;12.340;2022-08-19T13:49:29;3.00;;;1.80;;
21621;SDS011;10973;46.706;12.340;2022-08-19T13:51:57;1.90;;;1.60;;
21621;SDS011;10973;46.706;12.340;2022-08-19T13:54:24;1.65;;;1.55;;
21621;SDS011;10973;46.706;12.340;2022-08-19T13:56:52;2.17;;;1.97;;
21621;SDS011;10973;46.706;12.340;2022-08-19T13:59:19;1.77;;;1.40;;
21621;SDS011;10973;46.706;12.340;2022-08-19T14:01:46;1.77;;;1.65;;
21621;SDS011;10973;46.706;12.340;2022-08-19T14:04:14;2.42;;;1.30;;
21621;SDS011;10973;46.706;12.340;2022-08-19T14:06:41;2.50;;;1.60;;
21621;SDS011;10973;46.706;12.340;2022-08-19T14:09:08;2.15;;;1.52;;
21621;SDS011;10973;46.706;12.340;2022-08-19T14:11:35;2.35;;;1.40;;
21621;SDS011;10973;46.706;12.340;2022-08-19T14:14:02;3.50;;;1.60;;
21621;SDS011;10973;46.706;12.340;2022-08-19T14:16:30;1.40;;;1.38;;
21621;SDS011;10973;46.706;12.340;2022-08-19T14:18:57;1.25;;;1.25;;
21621;SDS011;10973;46.706;12.340;2022-08-19T14:21:24;2.45;;;1.42;;
21621;SDS011;10973;46.706;12.340;2022-08-19T14:23:52;1.60;;;1.50;;
21621;SDS011;10973;46.706;12.340;2022-08-19T14:26:20;1.40;;;1.30;;
21621;SDS011;10973;46.706;12.340;2022-08-19T14:28:50;1.50;;;1.33;;
21621;SDS011;10973;46.706;12.340;2022-08-19T14:31:18;1.92;;;1.40;;
21621;SDS011;10973;46.706;12.340;2022-08-19T14:33:46;1.63;;;1.25;;
21621;SDS011;10973;46.706;12.340;2022-08-19T14:36:14;1.80;;;1.30;;
21621;SDS011;10973;46.706;12.340;2022-08-19T14:38:42;1.40;;;1.30;;
21621;SDS011;10973;46.706;12.340;2022-08-19T14:41:11;1.58;;;1.48;;
21621;SDS011;10973;46.706;12.340;2022-08-19T14:43:49;1.40;;;1.30;;
21621;SDS011;10973;46.706;12.340;2022-08-19T14:46:19;1.95;;;1.45;;
21621;SDS011;10973;46.706;12.340;2022-08-19T14:48:50;1.48;;;1.25;;
21621;SDS011;10973;46.706;12.340;2022-08-19T14:51:19;2.00;;;1.20;;
21621;SDS011;10973;46.706;12.340;2022-08-19T14:53:50;3.28;;;1.58;;
21621;SDS011;10973;46.706;12.340;2022-08-19T14:56:19;1.75;;;1.30;;
21621;SDS011;10973;46.706;12.340;2022-08-19T14:58:50;1.40;;;1.30;;
21621;SDS011;10973;46.706;12.340;2022-08-19T15:01:18;1.60;;;1.20;;
21621;SDS011;10973;46.706;12.340;2022-08-19T15:03:49;1.30;;;1.20;;
21621;SDS011;10973;46.706;12.340;2022-08-19T15:06:17;5.88;;;2.38;;
21621;SDS011;10973;46.706;12.340;2022-08-19T15:08:46;4.50;;;2.55;;
21621;SDS011;10973;46.706;12.340;2022-08-19T15:11:15;4.43;;;2.10;;